Time;durP1;ratioP1;P1;durP2;ratioP2;P2;SDS_P1;SDS_P2;PMS_P1;PMS_P2;Temp;Humidity;BMP_temperature;BMP_pressure;BME280_temperature;BME280_humidity;BME280_pressure;Samples;Min_cycle;Max_cycle;Signal;HPM_P1;HPM_P2
2022/08/29 00:01:31;;;;;;;9.25;7.32;;;18.50;99.90;;;;;;4992485;28;20034;-71
2022/08/29 00:03:57;;;;;;;10.35;6.88;;;18.50;99.90;;;;;;5011376;28;20022;-71
2022/08/29 00:06:23;;;;;;;12.55;7.65;;;18.50;99.90;;;;;;4993228;28;20034;-71
2022/08/29 00:08:49;;;;;;;13.73;7.22;;;18.40;99.90;;;;;;4983469;28;20156;-74
2022/08/29 00:11:15;;;;;;;8.98;6.60;;;18.40;99.90;;;;;;4994022;28;20024;-73
2022/08/29 00:13:41;;;;;;;12.93;7.28;;;18.40;99.90;;;;;;4980491;28;20395;-75
2022/08/29 00:16:07;;;;;;;9.20;7.20;;;18.40;99.90;;;;;;4993445;28;20375;-75
2022/08/29 00:18:34;;;;;;;11.07;7.30;;;18.40;99.90;;;;;;4990689;28;20030;-75
2022/08/29 00:21:00;;;;;;;8.70;7.13;;;18.30;99.90;;;;;;4991640;28;20030;-74
2022/08/29 00:23:26;;;;;;;9.32;6.88;;;18.30;99.90;;;;;;5009517;28;20438;-74
2022/08/29 00:25:52;;;;;;;9.40;7.10;;;18.30;99.90;;;;;;4991976;28;20030;-73
2022/08/29 00:28:18;;;;;;;11.00;7.53;;;18.30;99.90;;;;;;5004254;28;20038;-75
2022/08/29 00:30:44;;;;;;;11.18;6.60;;;18.30;99.90;;;;;;4990486;28;20029;-74
2022/08/29 00:33:09;;;;;;;10.27;6.93;;;18.30;99.90;;;;;;5006501;28;20057;-74
2022/08/29 00:35:37;;;;;;;10.75;7.47;;;18.20;99.90;;;;;;4991656;28;20031;-75
2022/08/29 00:38:06;;;;;;;10.80;7.47;;;18.20;99.90;;;;;;4991714;28;20422;-72
2022/08/29 00:40:39;;;;;;;11.65;8.07;;;18.20;99.90;;;;;;5005082;28;20034;-75
2022/08/29 00:43:06;;;;;;;10.48;7.32;;;18.10;99.90;;;;;;4989636;28;20511;-75
2022/08/29 00:45:33;;;;;;;11.18;7.28;;;18.10;99.90;;;;;;4997129;28;20096;-75
2022/08/29 00:48:06;;;;;;;7.75;6.78;;;18.10;99.90;;;;;;4992900;28;20053;-74
2022/08/29 00:50:39;;;;;;;10.93;7.35;;;18.10;99.90;;;;;;4988634;28;20030;-73
2022/08/29 00:53:09;;;;;;;11.50;7.97;;;18.10;99.90;;;;;;4988779;28;20038;-74
2022/08/29 00:55:37;;;;;;;8.38;6.75;;;18.00;99.90;;;;;;4992861;28;20030;-74
2022/08/29 00:58:07;;;;;;;12.00;7.85;;;18.00;99.90;;;;;;4991340;28;20031;-74
2022/08/29 01:00:33;;;;;;;10.52;8.45;;;18.00;99.90;;;;;;5007853;28;20037;-75
2022/08/29 01:02:59;;;;;;;11.85;7.70;;;17.90;99.90;;;;;;4986963;28;20069;-74
2022/08/29 01:05:25;;;;;;;14.38;8.35;;;17.90;99.90;;;;;;4986772;28;20652;-74
2022/08/29 01:07:51;;;;;;;10.27;8.10;;;17.90;99.90;;;;;;4991025;28;20069;-75
2022/08/29 01:13:05;;;;;;;13.65;9.18;;;17.80;99.90;;;;;;4984675;28;20057;-72
2022/08/29 01:15:32;;;;;;;11.88;8.95;;;17.90;99.90;;;;;;5005110;28;20105;-75
2022/08/29 01:18:00;;;;;;;15.05;12.60;;;17.90;99.90;;;;;;4990268;28;20029;-72
2022/08/29 01:20:57;;;;;;;16.02;11.82;;;17.90;99.90;;;;;;4986883;28;20412;-74
2022/08/29 01:23:39;;;;;;;13.45;9.68;;;17.80;99.90;;;;;;4983014;28;20046;-74
2022/08/29 01:26:08;;;;;;;13.35;10.30;;;17.90;99.90;;;;;;5002980;28;20044;-75
2022/08/29 01:28:40;;;;;;;14.82;10.77;;;17.80;99.90;;;;;;4990524;28;20117;-73
2022/08/29 01:31:15;;;;;;;14.18;10.85;;;17.80;99.90;;;;;;4984860;28;20530;-74
2022/08/29 01:33:50;;;;;;;14.88;10.40;;;17.80;99.90;;;;;;4986216;28;20487;-75
2022/08/29 01:36:20;;;;;;;13.77;10.38;;;17.80;99.90;;;;;;4996841;28;20022;-75
2022/08/29 01:38:46;;;;;;;13.38;9.98;;;17.70;99.90;;;;;;4988433;28;20022;-74
2022/08/29 01:41:13;;;;;;;16.90;10.32;;;17.70;99.90;;;;;;4985624;28;20598;-73
2022/08/29 01:43:50;;;;;;;15.10;10.32;;;17.60;99.90;;;;;;5006298;28;20689;-74
2022/08/29 01:46:21;;;;;;;15.77;11.32;;;17.50;99.90;;;;;;4993213;28;20026;-75
2022/08/29 01:48:47;;;;;;;14.20;10.90;;;17.50;99.90;;;;;;4992966;28;20394;-76
2022/08/29 01:51:15;;;;;;;16.35;11.07;;;17.40;99.90;;;;;;4994017;28;20022;-75
2022/08/29 01:53:41;;;;;;;14.15;10.30;;;17.40;99.90;;;;;;4991060;28;20049;-74
2022/08/29 01:56:16;;;;;;;14.10;9.65;;;17.30;99.90;;;;;;4996956;28;20112;-74
2022/08/29 01:58:44;;;;;;;15.95;10.10;;;17.30;99.90;;;;;;5005092;28;20030;-74
2022/08/29 02:01:10;;;;;;;12.13;9.18;;;17.30;99.90;;;;;;5000424;28;20030;-73
2022/08/29 02:03:36;;;;;;;11.88;9.10;;;17.30;99.90;;;;;;4996383;28;20030;-74
2022/08/29 02:06:03;;;;;;;14.48;10.13;;;17.20;99.90;;;;;;4994040;28;20478;-74
2022/08/29 02:08:29;;;;;;;19.70;10.15;;;17.20;99.90;;;;;;5008269;28;20026;-74
2022/08/29 02:10:57;;;;;;;15.98;9.85;;;17.20;99.90;;;;;;4995613;28;20022;-74
2022/08/29 02:13:23;;;;;;;13.25;9.27;;;17.20;99.90;;;;;;4985839;28;20061;-74
2022/08/29 02:15:50;;;;;;;12.57;9.30;;;17.20;99.90;;;;;;4983572;28;20551;-72
2022/08/29 02:18:17;;;;;;;13.48;8.88;;;17.20;99.90;;;;;;4996084;28;20113;-73
2022/08/29 02:20:43;;;;;;;16.58;9.38;;;17.20;99.90;;;;;;4985470;28;20034;-74
2022/08/29 02:23:09;;;;;;;17.52;9.98;;;17.20;99.90;;;;;;4994635;28;20026;-75
2022/08/29 02:25:41;;;;;;;14.27;9.15;;;17.10;99.90;;;;;;4992054;28;20093;-75
2022/08/29 02:28:10;;;;;;;15.23;9.23;;;17.10;99.90;;;;;;4996544;28;20076;-75
2022/08/29 02:30:41;;;;;;;11.00;8.82;;;17.10;99.90;;;;;;5007627;28;20031;-74
2022/08/29 02:33:07;;;;;;;14.63;9.35;;;17.00;99.90;;;;;;4988386;28;20041;-75
2022/08/29 02:35:34;;;;;;;12.05;7.97;;;17.00;99.90;;;;;;4993366;28;20049;-74
2022/08/29 02:38:01;;;;;;;13.93;8.70;;;17.00;99.90;;;;;;4986941;28;20057;-74
2022/08/29 02:40:27;;;;;;;14.73;8.55;;;17.00;99.90;;;;;;4997206;28;20460;-75
2022/08/29 02:42:54;;;;;;;11.10;8.55;;;17.00;99.90;;;;;;4997129;28;20102;-75
2022/08/29 02:45:21;;;;;;;10.75;8.30;;;17.00;99.90;;;;;;4996407;28;20077;-75
2022/08/29 02:47:47;;;;;;;14.63;7.95;;;16.90;99.90;;;;;;5007161;28;20045;-74
2022/08/29 02:50:14;;;;;;;11.32;8.98;;;16.90;99.90;;;;;;4991180;28;20511;-74
2022/08/29 02:52:41;;;;;;;16.25;9.00;;;16.90;99.90;;;;;;4997457;28;20399;-75
2022/08/29 02:55:10;;;;;;;12.35;8.57;;;16.80;99.90;;;;;;5012103;28;20022;-73
2022/08/29 02:57:36;;;;;;;9.60;7.75;;;16.80;99.90;;;;;;4993334;28;20080;-75
2022/08/29 03:00:06;;;;;;;14.48;9.20;;;16.80;99.90;;;;;;4997441;28;20036;-75
2022/08/29 03:02:31;;;;;;;11.82;8.90;;;16.80;99.90;;;;;;4990130;28;20038;-74
2022/08/29 03:04:58;;;;;;;11.43;8.35;;;16.80;99.90;;;;;;5006574;28;20027;-75
2022/08/29 03:07:25;;;;;;;13.98;8.40;;;16.80;99.90;;;;;;5005677;28;20031;-74
2022/08/29 03:09:50;;;;;;;13.23;8.18;;;16.80;99.90;;;;;;4992146;28;20034;-74
2022/08/29 03:12:16;;;;;;;13.52;8.57;;;16.80;99.90;;;;;;5004250;28;20030;-74
2022/08/29 03:14:42;;;;;;;12.65;7.95;;;16.80;99.90;;;;;;4994499;28;20026;-75
2022/08/29 03:17:07;;;;;;;12.93;8.05;;;16.70;99.90;;;;;;4995410;28;20033;-75
2022/08/29 03:19:33;;;;;;;13.25;8.80;;;16.70;99.90;;;;;;4989584;28;20388;-75
2022/08/29 03:21:59;;;;;;;13.45;8.15;;;16.80;99.90;;;;;;4985692;28;20018;-75
2022/08/29 03:24:25;;;;;;;12.13;8.88;;;16.70;99.90;;;;;;4991878;28;20412;-75
2022/08/29 03:26:51;;;;;;;11.18;8.15;;;16.70;99.90;;;;;;5013168;28;20025;-74
2022/08/29 03:29:16;;;;;;;13.55;7.82;;;16.70;99.90;;;;;;5008385;28;20026;-74
2022/08/29 03:31:42;;;;;;;16.92;8.07;;;16.70;99.90;;;;;;4992735;28;20019;-75
2022/08/29 03:34:08;;;;;;;14.50;8.40;;;16.70;99.90;;;;;;4991045;28;20048;-75
2022/08/29 03:36:33;;;;;;;10.85;7.60;;;16.70;99.90;;;;;;4993775;28;20454;-75
2022/08/29 03:38:59;;;;;;;9.93;7.55;;;16.70;99.90;;;;;;4990302;28;20030;-74
2022/08/29 03:41:27;;;;;;;12.38;7.55;;;16.70;99.90;;;;;;4991222;28;20092;-74
2022/08/29 03:43:54;;;;;;;10.65;7.65;;;16.70;99.90;;;;;;4991902;28;20034;-75
2022/08/29 03:46:21;;;;;;;9.10;7.60;;;16.60;99.90;;;;;;4988682;28;20384;-74
2022/08/29 03:48:47;;;;;;;10.65;7.32;;;16.60;99.90;;;;;;4999180;28;20490;-75
2022/08/29 03:51:14;;;;;;;10.93;7.88;;;16.60;99.90;;;;;;4994197;28;20060;-76
2022/08/29 03:53:39;;;;;;;11.52;7.32;;;16.60;99.90;;;;;;4997981;28;20033;-76
2022/08/29 03:56:06;;;;;;;11.48;7.80;;;16.50;99.90;;;;;;5006759;28;20038;-75
2022/08/29 03:58:33;;;;;;;13.15;7.90;;;16.50;99.90;;;;;;4997516;28;20030;-74
2022/08/29 04:00:59;;;;;;;11.10;7.72;;;16.50;99.90;;;;;;4993048;28;20509;-77
2022/08/29 04:03:25;;;;;;;10.70;7.80;;;16.50;99.90;;;;;;4990039;28;20479;-75
2022/08/29 04:05:52;;;;;;;10.18;7.80;;;16.50;99.90;;;;;;4993379;28;20030;-76
2022/08/29 04:08:18;;;;;;;13.43;8.10;;;16.50;99.90;;;;;;4998505;28;20030;-75
2022/08/29 04:10:44;;;;;;;10.45;7.60;;;16.50;99.90;;;;;;5005508;28;20479;-74
2022/08/29 04:13:11;;;;;;;12.75;7.30;;;16.50;99.90;;;;;;5008091;28;20033;-76
2022/08/29 04:15:40;;;;;;;12.30;7.60;;;16.50;99.90;;;;;;4994917;28;20101;-74
2022/08/29 04:18:08;;;;;;;11.48;8.50;;;16.50;99.90;;;;;;4986313;28;20038;-76
2022/08/29 04:20:37;;;;;;;12.88;8.43;;;16.50;99.90;;;;;;4985687;28;20033;-74
2022/08/29 04:23:03;;;;;;;13.40;7.47;;;16.40;99.90;;;;;;5009318;28;20129;-75
2022/08/29 04:25:35;;;;;;;13.77;8.20;;;16.40;99.90;;;;;;4993489;28;20101;-75
2022/08/29 04:28:03;;;;;;;13.43;9.10;;;16.40;99.90;;;;;;5002959;28;20061;-75
2022/08/29 04:30:29;;;;;;;12.43;8.57;;;16.30;99.90;;;;;;4994059;28;20101;-76
2022/08/29 04:32:55;;;;;;;10.68;7.82;;;16.30;99.90;;;;;;5006888;28;20062;-75
2022/08/29 04:35:21;;;;;;;11.48;8.48;;;16.30;99.90;;;;;;4993151;28;20081;-76
2022/08/29 04:37:48;;;;;;;12.75;9.40;;;16.30;99.90;;;;;;4991117;28;20026;-76
2022/08/29 04:40:16;;;;;;;15.40;9.25;;;16.30;99.90;;;;;;5006637;28;20484;-75
2022/08/29 04:42:43;;;;;;;13.18;9.13;;;16.30;99.90;;;;;;4991142;28;20096;-76
2022/08/29 04:45:11;;;;;;;13.65;9.02;;;16.30;99.90;;;;;;5008058;28;20497;-77
2022/08/29 04:47:38;;;;;;;16.73;9.52;;;16.30;99.90;;;;;;4992991;28;20931;-74
2022/08/29 04:50:05;;;;;;;14.50;10.10;;;16.40;99.90;;;;;;4987936;28;20376;-74
2022/08/29 04:52:31;;;;;;;19.45;10.10;;;16.40;99.90;;;;;;4988340;28;20026;-73
2022/08/29 04:54:59;;;;;;;21.13;9.93;;;16.40;99.90;;;;;;4993392;28;20164;-74
2022/08/29 04:57:25;;;;;;;14.45;9.90;;;16.30;99.90;;;;;;4991210;28;20035;-73
2022/08/29 04:59:55;;;;;;;13.02;8.88;;;16.40;99.90;;;;;;4995257;28;20026;-74
2022/08/29 05:02:21;;;;;;;13.25;9.30;;;16.40;99.90;;;;;;5002432;28;20511;-74
2022/08/29 05:04:51;;;;;;;22.65;10.05;;;16.40;99.90;;;;;;4996391;28;20041;-74
2022/08/29 05:07:21;;;;;;;17.42;9.90;;;16.40;99.90;;;;;;4990341;28;20018;-74
2022/08/29 05:09:57;;;;;;;15.75;10.07;;;16.40;99.90;;;;;;4989230;28;20153;-74
2022/08/29 05:12:24;;;;;;;15.82;10.35;;;16.40;99.90;;;;;;4990141;28;20073;-75
2022/08/29 05:14:52;;;;;;;15.00;9.57;;;16.40;99.90;;;;;;4989903;28;20023;-74
2022/08/29 05:17:17;;;;;;;15.63;11.02;;;16.40;99.90;;;;;;4988873;28;20025;-73
2022/08/29 05:19:43;;;;;;;15.18;10.32;;;16.40;99.90;;;;;;4993138;28;20030;-74
2022/08/29 05:22:11;;;;;;;16.40;10.45;;;16.50;99.90;;;;;;4985455;28;20033;-73
2022/08/29 05:24:37;;;;;;;15.40;10.07;;;16.60;99.90;;;;;;4986772;28;20065;-73
2022/08/29 05:27:11;;;;;;;15.18;10.15;;;16.60;99.90;;;;;;4988298;28;20097;-73
2022/08/29 05:29:38;;;;;;;;;;;16.80;99.90;;;;;;4988667;28;20496;-74
2022/08/29 05:32:05;;;;;;;24.70;9.88;;;16.80;99.90;;;;;;4992345;28;19925;-74
2022/08/29 05:34:31;;;;;;;14.80;10.20;;;16.90;99.90;;;;;;4988834;28;20026;-72
2022/08/29 05:36:57;;;;;;;15.20;10.68;;;17.00;99.90;;;;;;4992304;28;20033;-75
2022/08/29 05:39:23;;;;;;;14.50;9.20;;;17.00;99.90;;;;;;4982758;28;20022;-75
2022/08/29 05:41:49;;;;;;;14.43;10.27;;;17.10;99.90;;;;;;4992212;28;20467;-75
2022/08/29 05:44:15;;;;;;;16.92;10.43;;;17.20;99.90;;;;;;5022841;23;20048;-79
2022/08/29 05:46:41;;;;;;;15.88;10.27;;;17.20;99.90;;;;;;5009751;28;20026;-78
2022/08/29 05:49:06;;;;;;;18.50;10.63;;;17.30;99.90;;;;;;5029848;28;20026;-77
2022/08/29 05:51:32;;;;;;;18.52;10.25;;;17.30;99.90;;;;;;5015102;28;20120;-77
2022/08/29 05:53:58;;;;;;;15.40;9.95;;;17.30;99.90;;;;;;5010903;28;20082;-78
2022/08/29 05:56:25;;;;;;;14.55;10.55;;;17.40;99.90;;;;;;5008829;28;20030;-76
2022/08/29 05:58:52;;;;;;;13.98;10.00;;;17.40;99.90;;;;;;4999824;28;20433;-76
2022/08/29 06:01:26;;;;;;;14.88;10.32;;;17.50;99.90;;;;;;5019462;28;20586;-78
2022/08/29 06:03:53;;;;;;;13.75;9.73;;;17.50;99.90;;;;;;5016232;28;20029;-78
2022/08/29 06:06:24;;;;;;;14.15;10.43;;;17.50;99.90;;;;;;5025516;28;20079;-78
2022/08/29 06:08:51;;;;;;;14.35;9.88;;;17.50;99.90;;;;;;5013572;28;20035;-79
2022/08/29 06:11:20;;;;;;;12.80;10.27;;;17.60;99.90;;;;;;5006643;28;20044;-78
2022/08/29 06:13:46;;;;;;;15.20;9.70;;;17.60;99.90;;;;;;5009843;28;20049;-77
2022/08/29 06:16:17;;;;;;;13.43;9.95;;;17.70;99.90;;;;;;5023636;28;20035;-79
2022/08/29 06:18:44;;;;;;;16.55;11.57;;;17.70;99.90;;;;;;5015628;28;20022;-78
2022/08/29 06:21:10;;;;;;;14.32;9.90;;;17.80;99.90;;;;;;5016463;28;20395;-77
2022/08/29 06:23:37;;;;;;;17.45;10.65;;;17.80;99.90;;;;;;5013052;28;20512;-77
2022/08/29 06:26:04;;;;;;;14.85;9.85;;;17.80;99.90;;;;;;5011435;28;20359;-77
2022/08/29 06:28:31;;;;;;;13.85;10.50;;;17.90;99.90;;;;;;5014913;28;20029;-78
2022/08/29 06:31:08;;;;;;;14.75;10.50;;;18.00;99.90;;;;;;5006522;28;20113;-77
2022/08/29 06:33:35;;;;;;;15.18;11.13;;;18.00;99.90;;;;;;5029314;28;20503;-77
2022/08/29 06:36:01;;;;;;;14.65;10.63;;;18.00;99.90;;;;;;5014087;28;20659;-77
2022/08/29 06:38:27;;;;;;;16.05;11.73;;;18.00;99.90;;;;;;5017148;28;20030;-76
2022/08/29 06:40:53;;;;;;;15.85;11.38;;;18.10;99.90;;;;;;5022460;28;20040;-77
2022/08/29 06:43:18;;;;;;;14.88;10.68;;;18.00;99.90;;;;;;5012453;28;20026;-78
2022/08/29 06:45:44;;;;;;;17.60;11.57;;;18.10;99.90;;;;;;5018864;28;20590;-77
2022/08/29 06:48:10;;;;;;;17.48;11.60;;;18.10;99.90;;;;;;5005185;28;20045;-77
2022/08/29 06:50:38;;;;;;;18.50;11.00;;;18.10;99.90;;;;;;5020133;28;20444;-76
2022/08/29 06:53:05;;;;;;;16.42;11.48;;;18.10;99.90;;;;;;5008322;28;20042;-77
2022/08/29 06:55:32;;;;;;;17.05;10.43;;;18.20;99.90;;;;;;5026849;28;20036;-77
2022/08/29 06:57:58;;;;;;;15.23;10.90;;;18.20;99.90;;;;;;5007589;28;20037;-77
2022/08/29 07:00:24;;;;;;;17.58;12.48;;;18.30;99.90;;;;;;5003745;28;20299;-77
2022/08/29 07:02:51;;;;;;;17.00;11.20;;;18.40;99.90;;;;;;5008708;28;20030;-77
2022/08/29 07:05:16;;;;;;;18.88;12.50;;;18.40;99.90;;;;;;5007430;28;20542;-77
2022/08/29 07:07:42;;;;;;;17.33;11.27;;;18.40;99.90;;;;;;5011570;28;20116;-77
2022/08/29 07:10:11;;;;;;;15.55;11.55;;;18.40;99.90;;;;;;5022516;28;20109;-77
2022/08/29 07:12:37;;;;;;;20.90;12.32;;;18.50;99.90;;;;;;5009408;28;20022;-76
2022/08/29 07:15:03;;;;;;;18.42;12.38;;;18.60;99.90;;;;;;5014513;28;20028;-76
2022/08/29 07:17:29;;;;;;;16.95;11.25;;;18.60;99.90;;;;;;5019616;28;20034;-77
2022/08/29 07:19:55;;;;;;;17.73;10.55;;;18.70;99.90;;;;;;5001446;28;20022;-77
2022/08/29 07:22:21;;;;;;;23.73;13.00;;;18.80;99.90;;;;;;5024390;28;20022;-77
2022/08/29 07:24:46;;;;;;;16.88;11.65;;;18.90;99.90;;;;;;5015654;28;20502;-77
2022/08/29 07:27:13;;;;;;;19.27;12.15;;;18.90;99.90;;;;;;5017194;28;20028;-77
2022/08/29 07:29:39;;;;;;;20.52;12.32;;;18.90;99.90;;;;;;5026451;28;20552;-76
2022/08/29 07:32:05;;;;;;;16.23;11.23;;;19.00;99.90;;;;;;5008409;28;20663;-76
2022/08/29 07:34:31;;;;;;;18.10;12.75;;;19.00;99.90;;;;;;5027730;28;20021;-76
2022/08/29 07:36:56;;;;;;;15.98;11.57;;;19.10;99.90;;;;;;5006064;28;20491;-76
2022/08/29 07:39:22;;;;;;;17.67;11.15;;;19.20;99.90;;;;;;5007260;28;20045;-77
2022/08/29 07:41:48;;;;;;;13.68;10.05;;;19.20;99.90;;;;;;5012306;28;20042;-76
2022/08/29 07:44:15;;;;;;;14.07;9.60;;;19.30;99.90;;;;;;5027545;28;20097;-77
2022/08/29 07:46:41;;;;;;;15.20;10.35;;;19.30;99.90;;;;;;5013131;28;20079;-77
2022/08/29 07:49:07;;;;;;;16.15;10.55;;;19.40;99.90;;;;;;5027240;28;20548;-77
2022/08/29 07:51:33;;;;;;;14.45;9.90;;;19.40;99.90;;;;;;5012306;28;20021;-77
2022/08/29 07:53:59;;;;;;;12.68;9.10;;;19.50;99.90;;;;;;5009295;28;20037;-77
2022/08/29 07:56:32;;;;;;;13.88;9.65;;;19.50;99.90;;;;;;5024807;28;20033;-77
2022/08/29 07:58:58;;;;;;;17.63;9.27;;;19.60;99.90;;;;;;5015485;28;20026;-77
2022/08/29 08:01:25;;;;;;;16.20;9.75;;;19.60;99.90;;;;;;5014537;28;20041;-77
2022/08/29 08:03:52;;;;;;;13.10;9.35;;;19.60;99.90;;;;;;5027658;28;20550;-77
2022/08/29 08:06:20;;;;;;;12.75;9.93;;;19.70;99.90;;;;;;5014530;28;20368;-77
2022/08/29 08:08:47;;;;;;;13.65;8.18;;;19.80;99.90;;;;;;5018747;28;20030;-77
2022/08/29 08:11:13;;;;;;;16.20;9.27;;;19.80;99.90;;;;;;5014021;28;20025;-77
2022/08/29 08:13:39;;;;;;;13.45;8.52;;;19.90;99.90;;;;;;5021046;28;20021;-77
2022/08/29 08:16:12;;;;;;;13.20;8.77;;;20.00;99.90;;;;;;5026555;28;20414;-76
2022/08/29 08:18:40;;;;;;;9.80;8.15;;;20.00;99.90;;;;;;5024835;28;20070;-76
2022/08/29 08:21:05;;;;;;;13.40;9.30;;;20.10;99.90;;;;;;5011394;28;20029;-79
2022/08/29 08:23:32;;;;;;;12.52;8.20;;;20.20;99.90;;;;;;5028276;28;20109;-78
2022/08/29 08:25:58;;;;;;;11.63;8.13;;;20.30;99.90;;;;;;5006199;28;20018;-78
2022/08/29 08:28:25;;;;;;;16.38;9.30;;;20.40;99.90;;;;;;5008425;28;20532;-76
2022/08/29 08:30:50;;;;;;;11.38;8.27;;;20.40;99.90;;;;;;5009832;28;20080;-77
2022/08/29 08:33:16;;;;;;;10.95;8.48;;;20.50;99.90;;;;;;5012885;28;20026;-78
2022/08/29 08:35:42;;;;;;;15.63;8.02;;;20.50;99.90;;;;;;5012801;28;20279;-76
2022/08/29 08:38:08;;;;;;;11.00;8.25;;;20.60;99.90;;;;;;5013333;28;20049;-78
2022/08/29 08:40:52;;;;;;;11.13;7.60;;;20.60;99.90;;;;;;5017043;28;20049;-78
2022/08/29 08:43:23;;;;;;;12.23;9.23;;;20.70;99.90;;;;;;5016619;28;20025;-78
2022/08/29 08:45:49;;;;;;;13.68;9.00;;;20.70;99.90;;;;;;5012102;28;20033;-76
2022/08/29 08:48:20;;;;;;;12.30;8.35;;;20.80;99.90;;;;;;5026796;28;20062;-77
2022/08/29 08:51:18;;;;;;;11.15;7.78;;;20.80;99.90;;;;;;5032386;28;20029;-78
2022/08/29 08:53:49;;;;;;;12.38;8.40;;;20.90;99.90;;;;;;5004713;28;20038;-78
2022/08/29 08:56:40;;;;;;;11.27;8.30;;;21.00;99.90;;;;;;5016089;28;20068;-77
2022/08/29 08:59:09;;;;;;;12.07;8.43;;;21.00;99.90;;;;;;5013165;28;20653;-78
2022/08/29 09:01:46;;;;;;;10.63;7.82;;;21.10;99.90;;;;;;5008003;28;20057;-77
2022/08/29 09:04:25;;;;;;;11.50;7.45;;;21.10;99.90;;;;;;5011666;28;20030;-76
2022/08/29 09:07:21;;;;;;;11.63;7.88;;;21.30;99.90;;;;;;5016673;28;20029;-78
2022/08/29 09:10:11;;;;;;;10.77;7.68;;;21.30;99.90;;;;;;5016718;28;20029;-76
2022/08/29 09:13:06;;;;;;;13.68;8.20;;;21.30;99.90;;;;;;5014715;28;20030;-78
2022/08/29 09:15:42;;;;;;;12.18;7.80;;;21.40;99.90;;;;;;4994258;28;20038;-77
2022/08/29 09:18:32;;;;;;;11.88;8.23;;;21.50;99.90;;;;;;5013967;28;20113;-78
2022/08/29 09:20:59;;;;;;;12.68;7.82;;;21.50;99.90;;;;;;5005371;28;20053;-77
2022/08/29 09:23:41;;;;;;;10.63;7.85;;;21.60;99.90;;;;;;5011956;28;20026;-76
2022/08/29 09:26:07;;;;;;;12.68;7.97;;;21.60;99.90;;;;;;5013602;28;20029;-77
2022/08/29 09:28:33;;;;;;;12.82;7.15;;;21.70;99.90;;;;;;5012338;28;20030;-78
2022/08/29 09:31:22;;;;;;;11.35;8.23;;;21.80;99.90;;;;;;5014843;28;20239;-77
2022/08/29 09:33:55;;;;;;;9.50;7.00;;;21.90;99.90;;;;;;5013131;28;20144;-77
2022/08/29 09:36:39;;;;;;;10.47;7.57;;;22.00;99.90;;;;;;5011240;28;20047;-77
2022/08/29 09:39:14;;;;;;;14.55;6.65;;;22.10;99.90;;;;;;5005916;28;20037;-78
2022/08/29 09:41:40;;;;;;;13.77;6.68;;;22.20;99.90;;;;;;5014446;28;20033;-76
2022/08/29 09:44:12;;;;;;;11.27;7.38;;;22.30;99.90;;;;;;5020250;28;20089;-77
2022/08/29 09:46:37;;;;;;;11.50;7.10;;;22.30;99.90;;;;;;5014518;28;20057;-77
2022/08/29 09:49:03;;;;;;;11.35;6.55;;;22.40;99.90;;;;;;5015687;28;20446;-76
2022/08/29 09:51:48;;;;;;;8.55;6.95;;;22.50;99.90;;;;;;5018299;28;20068;-78
2022/08/29 09:54:13;;;;;;;10.32;6.32;;;22.50;99.90;;;;;;5012649;28;20022;-77
2022/08/29 09:56:48;;;;;;;11.85;6.72;;;22.60;99.90;;;;;;5026071;28;20637;-77
2022/08/29 09:59:21;;;;;;;7.05;5.68;;;22.70;99.90;;;;;;5034457;28;20325;-78
2022/08/29 10:01:48;;;;;;;7.20;5.68;;;22.70;99.90;;;;;;5013372;28;20508;-78
2022/08/29 10:04:38;;;;;;;12.90;6.00;;;22.80;99.90;;;;;;5030418;28;20026;-77
2022/08/29 10:07:33;;;;;;;9.68;5.68;;;22.90;99.90;;;;;;5016452;28;20030;-78
2022/08/29 10:10:15;;;;;;;10.98;5.35;;;22.90;99.90;;;;;;5007748;28;20061;-78
2022/08/29 10:12:58;;;;;;;9.23;5.47;;;23.00;99.90;;;;;;5024078;28;20037;-78
2022/08/29 10:15:32;;;;;;;7.72;5.55;;;23.00;99.90;;;;;;5010045;28;20034;-77
2022/08/29 10:18:26;;;;;;;12.32;6.47;;;23.10;99.90;;;;;;5006882;28;20057;-77
2022/08/29 10:20:58;;;;;;;6.47;5.25;;;23.10;99.90;;;;;;5009208;28;20069;-77
2022/08/29 10:23:28;;;;;;;9.30;6.13;;;23.20;99.90;;;;;;5018468;28;20026;-77
2022/08/29 10:25:54;;;;;;;8.10;5.13;;;23.30;99.90;;;;;;5012893;28;20026;-78
2022/08/29 10:28:29;;;;;;;6.22;4.97;;;23.40;99.90;;;;;;5011044;28;20517;-78
2022/08/29 10:31:34;;;;;;;11.07;5.80;;;23.40;99.90;;;;;;5025601;28;20022;-77
2022/08/29 10:34:25;;;;;;;7.65;5.10;;;23.40;99.90;;;;;;5007414;28;20034;-72
2022/08/29 10:36:59;;;;;;;10.63;5.78;;;23.40;99.90;;;;;;5016710;28;20018;-73
2022/08/29 10:39:40;;;;;;;8.95;5.75;;;23.60;99.90;;;;;;5016593;28;20045;-72
2022/08/29 10:42:14;;;;;;;6.78;4.90;;;23.60;99.90;;;;;;5009603;28;20038;-71
2022/08/29 10:45:35;;;;;;;14.27;6.05;;;23.50;99.90;;;;;;5003906;28;20033;-72
2022/08/29 10:48:13;;;;;;;8.48;4.97;;;23.50;99.90;;;;;;4976291;28;20533;-72
2022/08/29 10:50:50;;;;;;;8.00;5.40;;;23.60;99.90;;;;;;5015131;28;20434;-74
2022/08/29 10:53:28;;;;;;;8.05;5.57;;;23.70;99.90;;;;;;5011837;28;20037;-73
2022/08/29 10:56:06;;;;;;;7.55;5.07;;;23.70;99.90;;;;;;4999358;28;20106;-73
2022/08/29 10:58:56;;;;;;;9.25;5.13;;;23.70;99.90;;;;;;5008589;28;20656;-74
2022/08/29 11:01:37;;;;;;;7.00;4.82;;;23.80;99.90;;;;;;5014008;28;20021;-74
2022/08/29 11:04:19;;;;;;;11.68;5.03;;;23.80;99.90;;;;;;5008733;28;20129;-73
2022/08/29 11:07:15;;;;;;;9.43;5.10;;;23.90;99.90;;;;;;5011338;28;20030;-71
2022/08/29 11:09:55;;;;;;;7.10;4.90;;;24.00;99.90;;;;;;4991027;28;20065;-72
2022/08/29 11:12:58;;;;;;;8.18;5.75;;;24.00;99.90;;;;;;5009492;28;20032;-72
2022/08/29 11:15:38;;;;;;;7.35;5.43;;;24.10;99.90;;;;;;4994408;28;20034;-74
2022/08/29 11:18:25;;;;;;;9.40;5.57;;;24.20;99.90;;;;;;4991916;28;20044;-72
2022/08/29 11:20:57;;;;;;;8.95;5.18;;;24.20;99.90;;;;;;5011783;28;20481;-74
2022/08/29 11:23:32;;;;;;;7.50;4.80;;;24.20;99.90;;;;;;5012696;28;20026;-72
2022/08/29 11:26:07;;;;;;;6.10;4.95;;;24.30;99.90;;;;;;5013739;28;20415;-74
2022/08/29 11:28:35;;;;;;;9.45;5.68;;;24.20;99.90;;;;;;5010281;28;20040;-75
2022/08/29 11:31:08;;;;;;;9.48;5.70;;;24.30;99.90;;;;;;5011467;28;20030;-74
2022/08/29 11:34:04;;;;;;;7.40;5.00;;;24.30;99.90;;;;;;5011264;28;20040;-74
2022/08/29 11:36:54;;;;;;;7.80;5.20;;;24.40;99.90;;;;;;5003183;28;20042;-74
2022/08/29 11:39:38;;;;;;;8.52;5.47;;;24.50;99.90;;;;;;5003939;28;20512;-74
2022/08/29 11:42:07;;;;;;;10.48;5.45;;;24.50;99.90;;;;;;4966974;28;20041;-74
2022/08/29 11:44:39;;;;;;;8.68;5.65;;;24.60;99.90;;;;;;5017466;28;20026;-71
2022/08/29 11:47:31;;;;;;;7.30;5.20;;;24.60;99.90;;;;;;5017529;28;20141;-73
2022/08/29 11:50:20;;;;;;;7.90;5.03;;;24.60;99.70;;;;;;5006685;28;20041;-72
2022/08/29 11:53:08;;;;;;;8.50;4.70;;;24.70;99.80;;;;;;5032509;28;20033;-70
2022/08/29 11:55:38;;;;;;;12.10;5.43;;;24.70;99.50;;;;;;5008399;28;20025;-72
2022/08/29 11:58:24;;;;;;;6.38;5.18;;;24.80;99.40;;;;;;4965023;28;20053;-72
2022/08/29 12:00:55;;;;;;;8.68;5.28;;;24.80;99.20;;;;;;4993879;28;20045;-71
2022/08/29 12:03:32;;;;;;;6.93;4.97;;;24.90;99.00;;;;;;5014525;28;20206;-70
2022/08/29 12:06:20;;;;;;;8.70;5.15;;;25.00;98.60;;;;;;5029210;28;20080;-72
2022/08/29 12:09:25;;;;;;;7.90;4.72;;;25.00;98.30;;;;;;5004826;28;20048;-72
2022/08/29 12:12:03;;;;;;;9.30;4.75;;;25.00;98.00;;;;;;4933543;29;20032;-70
2022/08/29 12:14:31;;;;;;;5.18;4.32;;;25.00;97.70;;;;;;5001531;28;20100;-71
2022/08/29 12:17:01;;;;;;;7.60;5.00;;;25.00;97.50;;;;;;5007566;28;20383;-71
2022/08/29 12:19:46;;;;;;;8.73;4.95;;;25.00;97.50;;;;;;5003907;28;20067;-73
2022/08/29 12:22:44;;;;;;;13.27;5.07;;;25.10;97.00;;;;;;5009372;28;20033;-71
2022/08/29 12:25:27;;;;;;;6.72;4.70;;;25.10;97.00;;;;;;5022719;28;20065;-70
2022/08/29 12:28:04;;;;;;;9.53;5.40;;;25.10;96.60;;;;;;5011984;28;20037;-71
2022/08/29 12:30:41;;;;;;;5.85;4.40;;;25.10;96.60;;;;;;5013158;28;20037;-70
2022/08/29 12:33:35;;;;;;;7.45;4.45;;;25.20;96.60;;;;;;5007968;28;20538;-70
2022/08/29 12:36:38;;;;;;;8.65;4.65;;;25.20;96.20;;;;;;5001879;28;20041;-72
2022/08/29 12:39:06;;;;;;;6.13;4.47;;;25.10;96.40;;;;;;5010007;28;20022;-71
2022/08/29 12:41:50;;;;;;;6.90;4.55;;;25.00;96.10;;;;;;5008704;28;20061;-74
2022/08/29 12:44:24;;;;;;;6.43;4.72;;;25.00;96.10;;;;;;5006615;28;20484;-72
2022/08/29 12:46:54;;;;;;;6.75;4.50;;;25.00;96.50;;;;;;5012975;28;20506;-71
2022/08/29 12:49:42;;;;;;;6.43;4.68;;;25.00;96.40;;;;;;5004173;28;20049;-70
2022/08/29 12:52:23;;;;;;;4.80;4.28;;;25.00;96.20;;;;;;5007224;28;20034;-71
2022/08/29 12:54:49;;;;;;;6.40;4.82;;;25.00;95.70;;;;;;5004820;28;20447;-71
2022/08/29 12:57:22;;;;;;;11.07;4.60;;;25.10;95.40;;;;;;5032211;28;20471;-72
2022/08/29 12:59:50;;;;;;;8.40;4.18;;;25.10;95.60;;;;;;5003692;28;20041;-70
2022/08/29 13:02:30;;;;;;;6.50;4.60;;;25.20;95.40;;;;;;5000296;28;20026;-70